Airfield :
LOGIN :

Register | Disclaimer

   EN    FR    IT 

 










Legend :    VFR   Marginal VFR   IFR   Intensive IFR   Very Intensive IFR
Visi :
Ceiling :
>= 8 km
>= 3000ft
5 to 8 km
1000 to 3000 ft
1500m to 5 km
500 to 1000 ft
800 to 1500m
200 to 500 ft
< 800m
< 200 ft
Symbols :   Thunderstorms  Fog  Heavy snow  Heavy precipitations  Wind > 20 kt
SIGMETs :     Misc.  Thunderstorms  Icing  Turbulence  Mountain Waves  Volcanic Ashes







- Airport Elevation : 92 ft


EGXZ - RAP Topcliffe

CURRENT METAR :
  • 141350Z 22008KT 9999 RA FEW019 BKN023 05/03 Q0982 WHT

EXPIRED METARs :
  • 141250Z 23010KT 9999 RA BKN023 BKN032 05/03 Q0983 BLACKWHT
  • 141150Z 22009KT 9999 BKN023 05/02 Q0983 WHT

TAF TAF EGXZ
Valid from the 14 at 15:00 until the 14 at 19:00 UTC


141339Z 1415/1419 23010KT 9999 SCT025
TEMPO 1415/1419 7000 -SHRA SCT020
PROB30
TEMPO 1416/1419 4000 SHRA
No reported NOTAMs for that airfield.
2 SIGMETs reported for the London FIR (EGTT) :
 
Severe turbulence
EGTT SIGMET 04 VALID 141500/141900 EGRR
EGTT LONDON FIR SEV TURB FCST SW OF LINE N5000 W00119 - N5219 W00533 SFC/FL060 STNR WKN=
Severe turbulence
EGTT SIGMET 03 VALID 141100/141500 EGRR
EGTT LONDON FIR SEV TURB FCST SW OF LINE N5000 W00019 - N5153 W00620 SFC/FL060 STNR NC=



MET'MAP, your aeronautical weather chart ! - Copyright ORBIFLY December 2007 - Disclaimer

ORBIFLY MET'MAP TEAM :

Programming & Development : Alexandra Zaïnal
Concept & Development : Baudouin d'Aumeries
Co-Development & Prog : Marc-Olivier Méhu
Technical & hardware support : Manuel Goepfert

Contact : metmap@orbifly.com




SOURCES & CREDITS :

   NOAA